createdAt,value
2018-09-08T00:01:06.491Z,100373.75
2018-09-08T00:06:09.965Z,100371.21
2018-09-08T00:11:13.413Z,100379.38
2018-09-08T00:16:22.325Z,100378.42
2018-09-08T00:21:31.253Z,100380.88
2018-09-08T00:26:34.108Z,100383.91
2018-09-08T00:31:37.818Z,100385.73
2018-09-08T00:36:41.351Z,100394.96
2018-09-08T00:41:44.803Z,100400.17
2018-09-08T00:46:48.310Z,100401.74
2018-09-08T00:51:51.778Z,100405.98
2018-09-08T00:56:55.471Z,100410.86
2018-09-08T01:01:59.114Z,100423.38
2018-09-08T01:07:02.760Z,100422.23
2018-09-08T01:12:06.509Z,100426.08
2018-09-08T01:17:10.013Z,100429.63
2018-09-08T01:22:13.556Z,100427.11
2018-09-08T01:27:17.033Z,100427.11
2018-09-08T01:32:20.613Z,100434.89
2018-09-08T01:37:24.040Z,100439.34
2018-09-08T01:42:27.481Z,100433.83
2018-09-08T01:47:31.118Z,100439.94
2018-09-08T01:52:34.642Z,100441.22
2018-09-08T01:57:38.091Z,100439.64
2018-09-08T02:02:41.603Z,100446.33
2018-09-08T02:07:45.026Z,100448.44
2018-09-08T02:12:48.501Z,100448.87
2018-09-08T02:17:51.943Z,100455.28
2018-09-08T02:22:55.519Z,100449.63
2018-09-08T02:27:59.309Z,100459.36
2018-09-08T02:33:02.762Z,100461.59
2018-09-08T02:38:06.472Z,100455.15
2018-09-08T02:43:09.961Z,100460.77
2018-09-08T02:48:13.525Z,100467.12
2018-09-08T02:53:16.018Z,100468.17
2018-09-08T02:58:18.392Z,100472.58
2018-09-08T03:03:20.708Z,100481.17
2018-09-08T03:08:23.022Z,100484.22
2018-09-08T03:13:25.566Z,100492.11
2018-09-08T03:18:28.028Z,100488.26
2018-09-08T03:23:30.435Z,100491.30
2018-09-08T03:28:32.773Z,100504.05
2018-09-08T03:33:35.297Z,100512.03
2018-09-08T03:38:37.682Z,100512.03
2018-09-08T03:43:40.128Z,100522.97
2018-09-08T03:48:42.685Z,100532.59
2018-09-08T03:53:45.020Z,100537.59
2018-09-08T03:58:47.432Z,100535.87
2018-09-08T04:03:50.945Z,100536.52
2018-09-08T04:08:54.905Z,100550.83
2018-09-08T04:13:58.441Z,100553.61
2018-09-08T04:19:01.937Z,100558.83
2018-09-08T04:24:05.567Z,100560.56
2018-09-08T04:29:09.109Z,100553.45
2018-09-08T04:34:12.616Z,100555.69
2018-09-08T04:39:16.305Z,100563.65
2018-09-08T04:44:19.789Z,100572.56
2018-09-08T04:49:23.379Z,100581.12
2018-09-08T04:54:26.829Z,100580.38
2018-09-08T04:59:30.320Z,100581.27
2018-09-08T05:04:33.776Z,100592.51
2018-09-08T05:09:37.277Z,100590.89
2018-09-08T05:14:40.706Z,100597.05
2018-09-08T05:19:44.328Z,100593.70
2018-09-08T05:24:47.798Z,100599.87
2018-09-08T05:29:51.443Z,100605.42
2018-09-08T05:34:55.076Z,100604.04
2018-09-08T05:39:58.488Z,100614.97
2018-09-08T05:45:02.103Z,100619.89
2018-09-08T05:50:05.616Z,100614.74
2018-09-08T05:55:09.098Z,100619.81
2018-09-08T06:00:12.543Z,100620.67
2018-09-08T06:05:16.155Z,100631.00
2018-09-08T06:10:19.971Z,100635.78
2018-09-08T06:15:23.393Z,100644.91
2018-09-08T06:20:26.854Z,100650.23
2018-09-08T06:25:30.671Z,100659.33
2018-09-08T06:30:34.129Z,100661.51
2018-09-08T06:35:37.710Z,100663.91
2018-09-08T06:40:42.241Z,100668.64
2018-09-08T06:45:46.181Z,100663.34
2018-09-08T06:50:49.945Z,100676.95
2018-09-08T06:55:53.987Z,100675.44
2018-09-08T07:00:58.513Z,100679.50
2018-09-08T07:06:02.830Z,100694.74
2018-09-08T07:11:06.669Z,100694.95
2018-09-08T07:16:10.267Z,100692.43
2018-09-08T07:21:13.908Z,100695.08
2018-09-08T07:26:17.449Z,100691.01
2018-09-08T07:31:21.249Z,100691.16
2018-09-08T07:36:24.955Z,100695.64
2018-09-08T07:41:28.601Z,100698.80
2018-09-08T07:46:32.226Z,100705.09
2018-09-08T07:51:35.808Z,100699.09
2018-09-08T07:56:39.754Z,100705.15
2018-09-08T08:01:43.454Z,100709.41
2018-09-08T08:06:47.691Z,100705.87
2018-09-08T08:11:51.400Z,100715.64
2018-09-08T08:16:55.432Z,100723.41
2018-09-08T08:21:59.025Z,100723.19
2018-09-08T08:27:02.492Z,100728.77
2018-09-08T08:32:06.012Z,100718.32
2018-09-08T08:37:09.814Z,100719.14
2018-09-08T08:42:13.497Z,100726.89
2018-09-08T08:47:17.008Z,100720.34
2018-09-08T08:52:31.658Z,100738.70
2018-09-08T08:57:35.101Z,100730.37
2018-09-08T09:02:38.662Z,100727.59
2018-09-08T09:07:42.312Z,100723.11
2018-09-08T09:12:45.917Z,100717.63
2018-09-08T09:17:49.427Z,100715.37
2018-09-08T09:23:04.280Z,100710.27
2018-09-08T09:28:07.782Z,100715.61
2018-09-08T09:33:11.515Z,100711.52
2018-09-08T09:38:15.434Z,100706.45
2018-09-08T09:43:18.961Z,100703.17
2018-09-08T09:48:22.494Z,100701.60
2018-09-08T09:53:25.982Z,100696.07
2018-09-08T09:58:29.465Z,100701.22
2018-09-08T10:03:32.953Z,100690.81
2018-09-08T10:08:36.446Z,100686.80
2018-09-08T10:13:40.052Z,100692.55
2018-09-08T10:18:43.744Z,100698.89
2018-09-08T10:24:04.342Z,100696.90
2018-09-08T10:28:50.758Z,100693.63
2018-09-08T10:33:54.609Z,100694.00
2018-09-08T10:38:58.806Z,100691.03
2018-09-08T10:44:02.300Z,100685.06
2018-09-08T10:49:05.733Z,100682.44
2018-09-08T10:54:09.204Z,100681.57
2018-09-08T10:59:12.665Z,100676.61
2018-09-08T11:04:16.110Z,100686.91
2018-09-08T11:09:19.561Z,100677.84
2018-09-08T11:14:23.037Z,100685.52
2018-09-08T11:19:26.753Z,100691.37
2018-09-08T11:24:30.683Z,100681.64
2018-09-08T11:29:34.197Z,100683.94
2018-09-08T11:34:37.862Z,100680.02
2018-09-08T11:39:41.342Z,100667.92
2018-09-08T11:44:44.868Z,100662.06
2018-09-08T11:49:48.455Z,100663.41
2018-09-08T11:54:51.950Z,100661.53
2018-09-08T11:59:55.386Z,100660.63
2018-09-08T12:04:58.897Z,100658.14
2018-09-08T12:10:02.398Z,100649.98
2018-09-08T12:15:07.040Z,100663.00
2018-09-08T12:20:10.575Z,100657.31
2018-09-08T12:25:14.076Z,100652.09
2018-09-08T12:30:17.579Z,100648.37
2018-09-08T12:35:21.097Z,100650.05
2018-09-08T12:40:25.062Z,100653.08
2018-09-08T12:45:28.557Z,100658.33
2018-09-08T12:50:32.305Z,100634.86
2018-09-08T12:55:35.930Z,100641.14
2018-09-08T13:00:39.382Z,100641.74
2018-09-08T13:05:42.934Z,100626.20
2018-09-08T13:10:46.422Z,100633.66
2018-09-08T13:15:50.345Z,100619.66
2018-09-08T13:20:53.793Z,100622.29
2018-09-08T13:25:57.397Z,100618.58
2018-09-08T13:31:00.876Z,100606.16
2018-09-08T13:36:04.381Z,100604.16
2018-09-08T13:41:07.995Z,100605.61
2018-09-08T13:46:11.590Z,100603.37
2018-09-08T13:51:15.322Z,100594.84
2018-09-08T13:56:18.807Z,100608.11
2018-09-08T14:01:22.286Z,100601.63
2018-09-08T14:06:26.107Z,100592.58
2018-09-08T14:11:29.854Z,100594.58
2018-09-08T14:16:33.445Z,100596.94
2018-09-08T14:21:36.903Z,100591.16
2018-09-08T14:26:40.394Z,100591.77
2018-09-08T14:31:43.912Z,100590.92
2018-09-08T14:36:47.404Z,100586.86
2018-09-08T14:41:50.905Z,100585.23
2018-09-08T14:46:54.450Z,100581.30
2018-09-08T14:51:57.939Z,100573.13
2018-09-08T14:57:01.456Z,100574.58
2018-09-08T15:02:05.002Z,100576.30
2018-09-08T15:07:08.658Z,100560.74
2018-09-08T15:12:12.330Z,100580.59
2018-09-08T15:17:15.773Z,100582.35
2018-09-08T15:22:19.242Z,100569.73
2018-09-08T15:27:22.711Z,100562.16
2018-09-08T15:32:26.170Z,100562.37
2018-09-08T15:37:29.697Z,100555.84
2018-09-08T15:42:33.225Z,100561.02
2018-09-08T15:47:36.709Z,100562.20
2018-09-08T15:52:40.515Z,100563.20
2018-09-08T15:57:43.997Z,100564.24
2018-09-08T16:02:47.483Z,100547.38
2018-09-08T16:07:50.965Z,100544.59
2018-09-08T16:12:54.626Z,100545.63
2018-09-08T16:17:58.095Z,100546.59
2018-09-08T16:23:01.652Z,100543.20
2018-09-08T16:28:05.129Z,100549.20
2018-09-08T16:33:08.767Z,100551.38
2018-09-08T16:38:12.306Z,100546.23
2018-09-08T16:43:15.777Z,100536.30
2018-09-08T16:48:19.322Z,100530.94
2018-09-08T16:53:22.746Z,100542.55
2018-09-08T16:58:26.375Z,100544.55
2018-09-08T17:03:30.450Z,100550.27
2018-09-08T17:08:33.878Z,100545.03
2018-09-08T17:13:37.362Z,100551.39
2018-09-08T17:18:40.825Z,100555.84
2018-09-08T17:23:44.659Z,100553.67
2018-09-08T17:28:48.313Z,100550.52
2018-09-08T17:33:51.906Z,100555.06
2018-09-08T17:38:55.691Z,100549.73
2018-09-08T17:43:59.342Z,100559.48
2018-09-08T17:49:03.077Z,100560.70
2018-09-08T17:54:06.902Z,100555.41
2018-09-08T17:59:10.336Z,100561.48
2018-09-08T18:04:14.537Z,100558.52
2018-09-08T18:09:18.014Z,100563.84
2018-09-08T18:14:22.060Z,100574.02
2018-09-08T18:19:25.903Z,100578.80
2018-09-08T18:24:29.799Z,100594.13
2018-09-08T18:29:33.268Z,100600.91
2018-09-08T18:34:36.972Z,100605.78
2018-09-08T18:39:40.490Z,100613.41
2018-09-08T18:44:44.065Z,100612.90
2018-09-08T18:49:48.181Z,100609.39
2018-09-08T18:54:52.845Z,100608.36
2018-09-08T18:59:56.326Z,100617.31
2018-09-08T19:04:59.818Z,100617.59
2018-09-08T19:10:06.562Z,100627.70
2018-09-08T19:15:17.649Z,100628.06
2018-09-08T19:20:26.389Z,100624.67
2018-09-08T19:25:30.027Z,100630.30
2018-09-08T19:30:34.644Z,100632.12
2018-09-08T19:35:39.601Z,100633.97
2018-09-08T19:40:46.090Z,100643.89
2018-09-08T19:45:49.859Z,100648.13
2018-09-08T19:50:53.710Z,100652.91
2018-09-08T19:55:57.387Z,100657.33
2018-09-08T20:01:01.127Z,100662.38
2018-09-08T20:06:04.682Z,100664.92
2018-09-08T20:11:08.194Z,100661.96
2018-09-08T20:16:11.755Z,100668.55
2018-09-08T20:21:15.386Z,100670.80
2018-09-08T20:26:19.261Z,100677.42
2018-09-08T20:31:22.729Z,100671.66
2018-09-08T20:36:26.277Z,100666.70
2018-09-08T20:41:29.757Z,100670.27
2018-09-08T20:46:33.278Z,100671.48
2018-09-08T20:51:36.828Z,100662.95
2018-09-08T20:56:40.364Z,100660.58
2018-09-08T21:01:43.847Z,100666.75
2018-09-08T21:06:47.305Z,100658.22
2018-09-08T21:11:50.883Z,100653.16
2018-09-08T21:16:54.491Z,100645.83
2018-09-08T21:21:57.984Z,100646.15
2018-09-08T21:27:01.569Z,100644.47
2018-09-08T21:32:05.222Z,100647.49
2018-09-08T21:37:08.688Z,100649.75
2018-09-08T21:42:12.378Z,100652.17
2018-09-08T21:47:15.873Z,100660.20
2018-09-08T21:52:19.328Z,100661.41
2018-09-08T21:57:22.801Z,100656.86
2018-09-08T22:02:26.261Z,100660.93
2018-09-08T22:07:29.737Z,100655.41
2018-09-08T22:12:33.244Z,100647.93
2018-09-08T22:17:36.969Z,100635.72
2018-09-08T22:22:40.521Z,100624.41
2018-09-08T22:27:43.961Z,100629.42
2018-09-08T22:32:47.831Z,100615.52
2018-09-08T22:37:51.307Z,100625.85
2018-09-08T22:42:54.850Z,100634.88
2018-09-08T22:47:58.389Z,100641.95
2018-09-08T22:53:01.919Z,100645.94
2018-09-08T22:58:05.455Z,100646.36
2018-09-08T23:03:09.130Z,100645.03
2018-09-08T23:08:12.601Z,100644.85
2018-09-08T23:13:16.188Z,100655.56
2018-09-08T23:18:19.684Z,100651.06
2018-09-08T23:23:23.112Z,100645.57
2018-09-08T23:28:26.816Z,100648.95
2018-09-08T23:33:30.255Z,100640.23
2018-09-08T23:38:33.793Z,100665.82
2018-09-08T23:43:37.433Z,100669.25
2018-09-08T23:48:40.970Z,100672.21
2018-09-08T23:53:44.401Z,100677.51
2018-09-08T23:58:47.938Z,100678.45
